Helena, Montana
Current Conditions -  °F | °C
As of 9:53 AM on Thursday 23 Oct 2014 (Local Time) from KHLN Reporting Station
Scattered Clouds Scattered Clouds  
Wind Chill: 58°   Ceiling: Unl
Heat Index: 58°   Visibility: 10mi
Dew Point: 32°   Wind: 8mph
Humidity: 37%   Direction: 140°SE
Pressure: 29.91"   Gusts: NA
Location:  46.59°N, 112.02°W
Report Text: KHLN 231553Z 14007KT 10SM SCT060 14/00 A2991 RMK AO2 SLP127 T01440000
Loading
Personal Weather Stations






























Interactive Weather Map
Tropical Storm Tracking
New forecast layout! Learn more

10-Day Weather Forecast

Advertisements
Track Severe Weather on mobile